sensor_id;sensor_type;location;lat;lon;timestamp;pressure;altitude;pressure_sealevel;temperature;humidity
70127;BME280;57491;42.694;23.314;2023-09-18T00:02:27;95612.81;;;18.34;78.74
70127;BME280;57491;42.694;23.314;2023-09-18T00:04:57;95621.09;;;18.38;78.88
70127;BME280;57491;42.694;23.314;2023-09-18T00:07:24;95608.97;;;18.37;79.06
70127;BME280;57491;42.694;23.314;2023-09-18T00:09:51;95602.47;;;18.39;78.79
70127;BME280;57491;42.694;23.314;2023-09-18T00:12:18;95607.94;;;18.38;78.95
70127;BME280;57491;42.694;23.314;2023-09-18T00:14:49;95604.66;;;18.42;78.97
70127;BME280;57491;42.694;23.314;2023-09-18T00:17:17;95602.66;;;18.38;78.90
70127;BME280;57491;42.694;23.314;2023-09-18T00:19:44;95602.03;;;18.42;78.79
70127;BME280;57491;42.694;23.314;2023-09-18T00:22:12;95597.56;;;18.43;78.50
70127;BME280;57491;42.694;23.314;2023-09-18T00:24:39;95604.44;;;18.44;78.75
70127;BME280;57491;42.694;23.314;2023-09-18T00:27:06;95606.47;;;18.42;78.69
70127;BME280;57491;42.694;23.314;2023-09-18T00:29:33;95609.28;;;18.47;78.35
70127;BME280;57491;42.694;23.314;2023-09-18T00:32:04;95605.25;;;18.44;78.38
70127;BME280;57491;42.694;23.314;2023-09-18T00:34:31;95615.72;;;18.51;77.87
70127;BME280;57491;42.694;23.314;2023-09-18T00:36:58;95614.53;;;18.47;77.87
70127;BME280;57491;42.694;23.314;2023-09-18T00:39:25;95602.81;;;18.43;77.56
70127;BME280;57491;42.694;23.314;2023-09-18T00:41:52;95609.44;;;18.52;77.33
70127;BME280;57491;42.694;23.314;2023-09-18T00:44:20;95609.25;;;18.53;77.27
70127;BME280;57491;42.694;23.314;2023-09-18T00:46:48;95616.75;;;18.50;77.13
70127;BME280;57491;42.694;23.314;2023-09-18T00:49:18;95609.28;;;18.47;77.02
70127;BME280;57491;42.694;23.314;2023-09-18T00:51:46;95610.09;;;18.47;76.97
70127;BME280;57491;42.694;23.314;2023-09-18T00:54:14;95611.91;;;18.47;77.17
70127;BME280;57491;42.694;23.314;2023-09-18T00:56:43;95609.06;;;18.48;76.93
70127;BME280;57491;42.694;23.314;2023-09-18T00:59:11;95609.88;;;18.49;76.66
70127;BME280;57491;42.694;23.314;2023-09-18T01:01:40;95615.97;;;18.49;76.50
70127;BME280;57491;42.694;23.314;2023-09-18T01:04:08;95615.81;;;18.38;76.95
70127;BME280;57491;42.694;23.314;2023-09-18T01:06:37;95622.28;;;18.42;77.15
70127;BME280;57491;42.694;23.314;2023-09-18T01:09:04;95618.31;;;18.33;77.71
70127;BME280;57491;42.694;23.314;2023-09-18T01:11:44;95625.34;;;18.39;77.58
70127;BME280;57491;42.694;23.314;2023-09-18T01:14:19;95617.00;;;18.42;76.91
70127;BME280;57491;42.694;23.314;2023-09-18T01:16:50;95631.53;;;18.51;76.63
70127;BME280;57491;42.694;23.314;2023-09-18T01:19:34;95616.81;;;18.43;76.43
70127;BME280;57491;42.694;23.314;2023-09-18T01:22:04;95627.28;;;18.50;75.85
70127;BME280;57491;42.694;23.314;2023-09-18T01:24:33;95624.91;;;18.42;75.85
70127;BME280;57491;42.694;23.314;2023-09-18T01:27:00;95620.69;;;18.41;75.94
70127;BME280;57491;42.694;23.314;2023-09-18T01:29:28;95623.47;;;18.46;75.87
70127;BME280;57491;42.694;23.314;2023-09-18T01:31:55;95619.81;;;18.47;75.48
70127;BME280;57491;42.694;23.314;2023-09-18T01:34:27;95626.25;;;18.51;75.84
70127;BME280;57491;42.694;23.314;2023-09-18T01:36:55;95615.16;;;18.49;75.54
70127;BME280;57491;42.694;23.314;2023-09-18T01:39:25;95613.31;;;18.49;75.51
70127;BME280;57491;42.694;23.314;2023-09-18T01:41:59;95616.44;;;18.40;75.60
70127;BME280;57491;42.694;23.314;2023-09-18T01:44:27;95626.97;;;18.40;76.02
70127;BME280;57491;42.694;23.314;2023-09-18T01:46:55;95624.75;;;18.37;76.24
70127;BME280;57491;42.694;23.314;2023-09-18T01:49:32;95620.28;;;18.37;76.09
70127;BME280;57491;42.694;23.314;2023-09-18T01:51:59;95620.72;;;18.34;76.09
70127;BME280;57491;42.694;23.314;2023-09-18T01:54:27;95628.84;;;18.33;76.37
70127;BME280;57491;42.694;23.314;2023-09-18T01:56:54;95621.16;;;18.31;76.13
70127;BME280;57491;42.694;23.314;2023-09-18T01:59:23;95624.16;;;18.35;76.15
70127;BME280;57491;42.694;23.314;2023-09-18T02:01:51;95629.22;;;18.36;75.76
70127;BME280;57491;42.694;23.314;2023-09-18T02:04:19;95629.69;;;18.26;76.18
70127;BME280;57491;42.694;23.314;2023-09-18T02:06:47;95623.81;;;18.24;76.46
70127;BME280;57491;42.694;23.314;2023-09-18T02:09:15;95631.34;;;18.21;76.30
70127;BME280;57491;42.694;23.314;2023-09-18T02:11:44;95631.72;;;18.24;76.13
70127;BME280;57491;42.694;23.314;2023-09-18T02:14:11;95632.50;;;18.32;76.25
70127;BME280;57491;42.694;23.314;2023-09-18T02:16:41;95630.06;;;18.30;75.84
70127;BME280;57491;42.694;23.314;2023-09-18T02:19:09;95635.59;;;18.22;76.30
70127;BME280;57491;42.694;23.314;2023-09-18T02:21:36;95630.31;;;18.22;76.14
70127;BME280;57491;42.694;23.314;2023-09-18T02:24:04;95626.03;;;18.27;76.21
70127;BME280;57491;42.694;23.314;2023-09-18T02:26:31;95631.69;;;18.31;75.99
70127;BME280;57491;42.694;23.314;2023-09-18T02:28:59;95608.66;;;18.20;75.77
70127;BME280;57491;42.694;23.314;2023-09-18T02:31:27;95634.50;;;18.29;75.95
70127;BME280;57491;42.694;23.314;2023-09-18T02:33:55;95631.88;;;18.29;75.54
70127;BME280;57491;42.694;23.314;2023-09-18T02:36:22;95636.78;;;18.26;75.81
70127;BME280;57491;42.694;23.314;2023-09-18T02:38:49;95630.50;;;18.27;75.50
70127;BME280;57491;42.694;23.314;2023-09-18T02:41:16;95625.63;;;18.24;75.83
70127;BME280;57491;42.694;23.314;2023-09-18T02:43:43;95634.41;;;18.18;76.02
70127;BME280;57491;42.694;23.314;2023-09-18T02:46:11;95624.16;;;18.03;76.21
70127;BME280;57491;42.694;23.314;2023-09-18T02:48:38;95636.66;;;18.14;75.87
70127;BME280;57491;42.694;23.314;2023-09-18T02:51:06;95635.03;;;18.13;76.02
70127;BME280;57491;42.694;23.314;2023-09-18T02:53:33;95631.41;;;18.08;76.08
70127;BME280;57491;42.694;23.314;2023-09-18T02:56:01;95635.06;;;18.07;76.08
70127;BME280;57491;42.694;23.314;2023-09-18T02:58:28;95630.66;;;18.01;76.72
70127;BME280;57491;42.694;23.314;2023-09-18T03:00:57;95634.69;;;18.03;76.19
70127;BME280;57491;42.694;23.314;2023-09-18T03:03:25;95628.03;;;18.01;76.01
70127;BME280;57491;42.694;23.314;2023-09-18T03:05:52;95637.50;;;18.08;76.21
70127;BME280;57491;42.694;23.314;2023-09-18T03:08:21;95640.06;;;18.15;75.81
70127;BME280;57491;42.694;23.314;2023-09-18T03:10:48;95645.13;;;18.16;75.93
70127;BME280;57491;42.694;23.314;2023-09-18T03:13:15;95639.06;;;18.16;75.67
70127;BME280;57491;42.694;23.314;2023-09-18T03:15:45;95640.13;;;18.08;75.76
70127;BME280;57491;42.694;23.314;2023-09-18T03:18:14;95639.94;;;18.03;75.93
70127;BME280;57491;42.694;23.314;2023-09-18T03:20:41;95631.06;;;17.98;76.22
70127;BME280;57491;42.694;23.314;2023-09-18T03:23:08;95639.59;;;17.93;76.41
70127;BME280;57491;42.694;23.314;2023-09-18T03:25:37;95639.22;;;17.90;76.77
70127;BME280;57491;42.694;23.314;2023-09-18T03:28:04;95630.94;;;17.86;76.84
70127;BME280;57491;42.694;23.314;2023-09-18T03:30:31;95625.06;;;17.84;77.01
70127;BME280;57491;42.694;23.314;2023-09-18T03:32:58;95629.75;;;17.82;76.93
70127;BME280;57491;42.694;23.314;2023-09-18T03:35:28;95626.25;;;17.88;77.03
70127;BME280;57491;42.694;23.314;2023-09-18T03:37:56;95621.41;;;17.85;77.16
70127;BME280;57491;42.694;23.314;2023-09-18T03:40:23;95618.59;;;17.87;76.85
70127;BME280;57491;42.694;23.314;2023-09-18T03:42:51;95630.75;;;17.88;77.11
70127;BME280;57491;42.694;23.314;2023-09-18T03:45:18;95626.69;;;17.85;77.24
70127;BME280;57491;42.694;23.314;2023-09-18T03:47:45;95618.63;;;17.80;76.98
70127;BME280;57491;42.694;23.314;2023-09-18T03:50:15;95623.47;;;17.83;77.27
70127;BME280;57491;42.694;23.314;2023-09-18T03:52:42;95615.41;;;17.78;77.16
70127;BME280;57491;42.694;23.314;2023-09-18T03:55:10;95615.84;;;17.68;77.58
70127;BME280;57491;42.694;23.314;2023-09-18T03:57:38;95595.28;;;17.46;77.79
70127;BME280;57491;42.694;23.314;2023-09-18T04:00:08;95617.91;;;17.60;77.89
70127;BME280;57491;42.694;23.314;2023-09-18T04:02:35;95609.44;;;17.51;78.32
70127;BME280;57491;42.694;23.314;2023-09-18T04:05:02;95615.47;;;17.65;77.85
70127;BME280;57491;42.694;23.314;2023-09-18T04:07:30;95615.84;;;17.68;77.56
70127;BME280;57491;42.694;23.314;2023-09-18T04:09:57;95610.53;;;17.75;77.81
70127;BME280;57491;42.694;23.314;2023-09-18T04:12:25;95594.44;;;17.65;77.37
70127;BME280;57491;42.694;23.314;2023-09-18T04:14:52;95624.31;;;17.70;77.56
70127;BME280;57491;42.694;23.314;2023-09-18T04:17:21;95631.63;;;17.68;78.04
70127;BME280;57491;42.694;23.314;2023-09-18T04:19:48;95627.75;;;17.71;77.66
70127;BME280;57491;42.694;23.314;2023-09-18T04:22:15;95623.50;;;17.76;77.16
70127;BME280;57491;42.694;23.314;2023-09-18T04:24:42;95615.22;;;17.73;77.37
70127;BME280;57491;42.694;23.314;2023-09-18T04:27:09;95636.00;;;17.81;77.27
70127;BME280;57491;42.694;23.314;2023-09-18T04:29:36;95638.22;;;17.84;76.99
70127;BME280;57491;42.694;23.314;2023-09-18T04:32:04;95637.59;;;17.89;76.57
70127;BME280;57491;42.694;23.314;2023-09-18T04:34:32;95635.78;;;17.89;76.93
70127;BME280;57491;42.694;23.314;2023-09-18T04:37:00;95634.50;;;17.98;76.41
70127;BME280;57491;42.694;23.314;2023-09-18T04:39:29;95633.06;;;18.02;76.13
70127;BME280;57491;42.694;23.314;2023-09-18T04:42:01;95634.84;;;18.08;76.04
70127;BME280;57491;42.694;23.314;2023-09-18T04:44:30;95635.84;;;18.14;75.73
70127;BME280;57491;42.694;23.314;2023-09-18T04:46:57;95629.41;;;18.10;75.69
70127;BME280;57491;42.694;23.314;2023-09-18T04:49:25;95639.50;;;18.13;75.48
70127;BME280;57491;42.694;23.314;2023-09-18T04:51:55;95633.13;;;18.27;74.94
70127;BME280;57491;42.694;23.314;2023-09-18T04:54:22;95633.25;;;18.39;74.79
70127;BME280;57491;42.694;23.314;2023-09-18T04:56:49;95625.59;;;18.31;74.71
70127;BME280;57491;42.694;23.314;2023-09-18T04:59:16;95630.34;;;18.47;74.44
70127;BME280;57491;42.694;23.314;2023-09-18T05:01:43;95626.34;;;18.38;74.34
70127;BME280;57491;42.694;23.314;2023-09-18T05:04:11;95631.25;;;18.34;74.40
70127;BME280;57491;42.694;23.314;2023-09-18T05:06:38;95630.75;;;18.19;75.42
70127;BME280;57491;42.694;23.314;2023-09-18T05:09:09;95626.84;;;18.28;74.89
70127;BME280;57491;42.694;23.314;2023-09-18T05:11:36;95631.72;;;18.56;74.55
70127;BME280;57491;42.694;23.314;2023-09-18T05:14:04;95636.13;;;18.62;73.43
70127;BME280;57491;42.694;23.314;2023-09-18T05:16:32;95638.28;;;18.71;73.20
70127;BME280;57491;42.694;23.314;2023-09-18T05:18:59;95614.44;;;18.66;72.77
70127;BME280;57491;42.694;23.314;2023-09-18T05:21:26;95643.31;;;18.98;72.46
70127;BME280;57491;42.694;23.314;2023-09-18T05:23:53;95655.38;;;19.12;71.68
70127;BME280;57491;42.694;23.314;2023-09-18T05:26:22;95645.97;;;18.98;71.70
70127;BME280;57491;42.694;23.314;2023-09-18T05:28:50;95651.91;;;19.11;71.69
70127;BME280;57491;42.694;23.314;2023-09-18T05:31:19;95644.19;;;19.35;70.49
70127;BME280;57491;42.694;23.314;2023-09-18T05:33:46;95649.47;;;19.35;70.15
70127;BME280;57491;42.694;23.314;2023-09-18T05:36:14;95648.97;;;19.44;70.33
70127;BME280;57491;42.694;23.314;2023-09-18T05:38:41;95645.59;;;19.55;69.45
70127;BME280;57491;42.694;23.314;2023-09-18T05:41:09;95652.03;;;19.78;68.83
70127;BME280;57491;42.694;23.314;2023-09-18T05:43:37;95647.97;;;19.93;68.26
70127;BME280;57491;42.694;23.314;2023-09-18T05:46:05;95645.84;;;20.02;67.69
70127;BME280;57491;42.694;23.314;2023-09-18T05:48:32;95660.47;;;20.16;67.27
70127;BME280;57491;42.694;23.314;2023-09-18T05:50:59;95662.59;;;20.26;66.66
70127;BME280;57491;42.694;23.314;2023-09-18T05:53:26;95660.69;;;20.44;66.29
70127;BME280;57491;42.694;23.314;2023-09-18T05:55:53;95661.69;;;20.62;65.73
70127;BME280;57491;42.694;23.314;2023-09-18T05:58:22;95655.28;;;20.92;64.62
70127;BME280;57491;42.694;23.314;2023-09-18T06:00:52;95656.59;;;21.25;63.33
70127;BME280;57491;42.694;23.314;2023-09-18T06:03:19;95634.72;;;21.41;62.42
70127;BME280;57491;42.694;23.314;2023-09-18T06:05:47;95652.44;;;21.80;61.54
70127;BME280;57491;42.694;23.314;2023-09-18T06:08:14;95648.16;;;22.03;60.76
70127;BME280;57491;42.694;23.314;2023-09-18T06:10:41;95651.75;;;22.25;60.00
70127;BME280;57491;42.694;23.314;2023-09-18T06:13:09;95651.28;;;22.28;59.36
70127;BME280;57491;42.694;23.314;2023-09-18T06:15:36;95641.84;;;22.20;59.42
70127;BME280;57491;42.694;23.314;2023-09-18T06:18:05;95653.34;;;22.26;59.37
70127;BME280;57491;42.694;23.314;2023-09-18T06:20:33;95653.16;;;22.44;59.16
70127;BME280;57491;42.694;23.314;2023-09-18T06:23:00;95660.63;;;22.47;58.64
70127;BME280;57491;42.694;23.314;2023-09-18T06:25:29;95656.00;;;22.26;59.46
70127;BME280;57491;42.694;23.314;2023-09-18T06:27:56;95649.78;;;22.32;59.03
70127;BME280;57491;42.694;23.314;2023-09-18T06:30:25;95658.91;;;22.69;58.28
70127;BME280;57491;42.694;23.314;2023-09-18T06:32:52;95661.44;;;23.09;56.85
70127;BME280;57491;42.694;23.314;2023-09-18T06:35:22;95659.38;;;23.33;55.99
70127;BME280;57491;42.694;23.314;2023-09-18T06:37:49;95664.41;;;23.68;55.05
70127;BME280;57491;42.694;23.314;2023-09-18T06:40:16;95658.59;;;23.93;54.25
70127;BME280;57491;42.694;23.314;2023-09-18T06:42:43;95665.06;;;24.02;53.45
70127;BME280;57491;42.694;23.314;2023-09-18T06:45:10;95658.47;;;24.26;53.21
70127;BME280;57491;42.694;23.314;2023-09-18T06:47:38;95657.59;;;23.99;52.84
70127;BME280;57491;42.694;23.314;2023-09-18T06:50:06;95662.72;;;24.06;53.30
70127;BME280;57491;42.694;23.314;2023-09-18T06:52:36;95661.66;;;24.28;52.09
70127;BME280;57491;42.694;23.314;2023-09-18T06:55:03;95661.03;;;24.43;51.98
70127;BME280;57491;42.694;23.314;2023-09-18T06:57:31;95602.72;;;24.10;52.08
70127;BME280;57491;42.694;23.314;2023-09-18T06:59:58;95655.94;;;24.68;51.86
70127;BME280;57491;42.694;23.314;2023-09-18T07:02:25;95664.81;;;24.79;51.22
70127;BME280;57491;42.694;23.314;2023-09-18T07:04:54;95659.25;;;24.80;50.55
70127;BME280;57491;42.694;23.314;2023-09-18T07:07:21;95651.69;;;24.99;49.91
70127;BME280;57491;42.694;23.314;2023-09-18T07:09:52;95654.25;;;25.21;49.63
70127;BME280;57491;42.694;23.314;2023-09-18T07:12:19;95649.41;;;25.55;48.48
70127;BME280;57491;42.694;23.314;2023-09-18T07:14:46;95648.16;;;25.67;47.84
70127;BME280;57491;42.694;23.314;2023-09-18T07:17:14;95657.28;;;25.35;48.78
70127;BME280;57491;42.694;23.314;2023-09-18T07:19:42;95657.03;;;25.41;48.29
70127;BME280;57491;42.694;23.314;2023-09-18T07:22:09;95635.34;;;25.59;48.16
70127;BME280;57491;42.694;23.314;2023-09-18T07:24:36;95652.53;;;25.99;47.26
70127;BME280;57491;42.694;23.314;2023-09-18T07:27:07;95657.78;;;25.73;47.58
70127;BME280;57491;42.694;23.314;2023-09-18T07:29:34;95670.13;;;25.48;47.75
70127;BME280;57491;42.694;23.314;2023-09-18T07:32:02;95653.81;;;24.97;49.30
70127;BME280;57491;42.694;23.314;2023-09-18T07:34:29;95655.25;;;25.52;47.65
70127;BME280;57491;42.694;23.314;2023-09-18T07:36:56;95663.38;;;25.77;47.50
70127;BME280;57491;42.694;23.314;2023-09-18T07:39:23;95653.91;;;26.01;46.45
70127;BME280;57491;42.694;23.314;2023-09-18T07:41:50;95658.84;;;26.45;46.17
70127;BME280;57491;42.694;23.314;2023-09-18T07:44:21;95651.66;;;26.76;45.12
70127;BME280;57491;42.694;23.314;2023-09-18T07:46:48;95649.56;;;27.03;44.37
70127;BME280;57491;42.694;23.314;2023-09-18T07:49:15;95646.09;;;27.23;44.06
70127;BME280;57491;42.694;23.314;2023-09-18T07:51:43;95665.28;;;27.60;42.66
70127;BME280;57491;42.694;23.314;2023-09-18T07:54:13;95656.47;;;27.55;42.74
70127;BME280;57491;42.694;23.314;2023-09-18T07:56:41;95651.25;;;27.99;42.05
70127;BME280;57491;42.694;23.314;2023-09-18T07:59:08;95655.31;;;27.81;41.87
70127;BME280;57491;42.694;23.314;2023-09-18T08:01:37;95651.44;;;27.02;43.29
70127;BME280;57491;42.694;23.314;2023-09-18T08:04:04;95649.47;;;26.27;45.14
70127;BME280;57491;42.694;23.314;2023-09-18T08:06:31;95642.91;;;26.95;43.89
70127;BME280;57491;42.694;23.314;2023-09-18T08:09:00;95648.47;;;27.29;43.25
70127;BME280;57491;42.694;23.314;2023-09-18T08:11:27;95647.91;;;27.58;42.35
70127;BME280;57491;42.694;23.314;2023-09-18T08:13:54;95648.81;;;28.12;41.04
70127;BME280;57491;42.694;23.314;2023-09-18T08:16:21;95651.06;;;28.39;40.06
70127;BME280;57491;42.694;23.314;2023-09-18T08:18:52;95646.63;;;28.63;39.96
70127;BME280;57491;42.694;23.314;2023-09-18T08:21:19;95641.25;;;28.68;39.85
70127;BME280;57491;42.694;23.314;2023-09-18T08:23:46;95637.66;;;29.17;38.60
70127;BME280;57491;42.694;23.314;2023-09-18T08:26:14;95632.97;;;29.33;37.97
70127;BME280;57491;42.694;23.314;2023-09-18T08:28:41;95637.78;;;29.59;38.28
70127;BME280;57491;42.694;23.314;2023-09-18T08:31:11;95636.56;;;29.76;36.98
70127;BME280;57491;42.694;23.314;2023-09-18T08:33:38;95627.50;;;30.14;36.33
70127;BME280;57491;42.694;23.314;2023-09-18T08:36:06;95617.38;;;29.63;37.41
70127;BME280;57491;42.694;23.314;2023-09-18T08:38:33;95629.97;;;29.39;37.02
70127;BME280;57491;42.694;23.314;2023-09-18T08:41:00;95628.19;;;29.58;36.89
70127;BME280;57491;42.694;23.314;2023-09-18T08:43:29;95617.06;;;29.94;36.79
70127;BME280;57491;42.694;23.314;2023-09-18T08:45:59;95608.97;;;30.36;36.04
70127;BME280;57491;42.694;23.314;2023-09-18T08:48:29;95614.16;;;30.09;36.44
70127;BME280;57491;42.694;23.314;2023-09-18T08:51:01;95609.84;;;30.50;35.51
70127;BME280;57491;42.694;23.314;2023-09-18T08:53:32;95605.06;;;30.98;34.50
70127;BME280;57491;42.694;23.314;2023-09-18T08:56:00;95605.88;;;31.45;33.25
70127;BME280;57491;42.694;23.314;2023-09-18T08:58:28;95603.00;;;31.96;32.82
70127;BME280;57491;42.694;23.314;2023-09-18T09:00:58;95601.59;;;31.99;31.59
70127;BME280;57491;42.694;23.314;2023-09-18T09:03:27;95611.25;;;32.27;31.05
70127;BME280;57491;42.694;23.314;2023-09-18T09:05:54;95602.91;;;32.64;30.88
70127;BME280;57491;42.694;23.314;2023-09-18T09:08:21;95602.34;;;32.76;31.00
70127;BME280;57491;42.694;23.314;2023-09-18T09:10:49;95603.69;;;32.87;30.82
70127;BME280;57491;42.694;23.314;2023-09-18T09:13:17;95600.31;;;32.82;30.79
70127;BME280;57491;42.694;23.314;2023-09-18T09:15:46;95601.38;;;32.72;30.75
70127;BME280;57491;42.694;23.314;2023-09-18T09:18:15;95590.31;;;32.38;30.41
70127;BME280;57491;42.694;23.314;2023-09-18T09:20:44;95602.41;;;32.13;30.67
70127;BME280;57491;42.694;23.314;2023-09-18T09:23:20;95596.13;;;32.04;31.12
70127;BME280;57491;42.694;23.314;2023-09-18T09:25:47;95588.25;;;31.94;31.57
70127;BME280;57491;42.694;23.314;2023-09-18T09:28:15;95577.38;;;32.26;31.11
70127;BME280;57491;42.694;23.314;2023-09-18T09:30:43;95583.19;;;32.78;30.21
70127;BME280;57491;42.694;23.314;2023-09-18T09:33:12;95587.13;;;33.02;29.40
70127;BME280;57491;42.694;23.314;2023-09-18T09:35:41;95581.50;;;33.12;28.53
70127;BME280;57491;42.694;23.314;2023-09-18T09:38:09;95588.81;;;32.90;29.28
70127;BME280;57491;42.694;23.314;2023-09-18T09:40:39;95582.06;;;32.79;30.11
70127;BME280;57491;42.694;23.314;2023-09-18T09:43:08;95582.44;;;32.86;29.79
70127;BME280;57491;42.694;23.314;2023-09-18T09:45:36;95575.97;;;32.64;29.71
70127;BME280;57491;42.694;23.314;2023-09-18T09:48:05;95564.19;;;31.75;30.99
70127;BME280;57491;42.694;23.314;2023-09-18T09:50:33;95576.31;;;31.45;31.42
70127;BME280;57491;42.694;23.314;2023-09-18T09:53:00;95575.97;;;31.65;31.74
70127;BME280;57491;42.694;23.314;2023-09-18T09:55:29;95576.63;;;31.84;31.42
70127;BME280;57491;42.694;23.314;2023-09-18T09:57:58;95573.81;;;32.03;31.05
70127;BME280;57491;42.694;23.314;2023-09-18T10:00:29;95565.06;;;32.33;30.59
70127;BME280;57491;42.694;23.314;2023-09-18T10:03:02;95561.94;;;32.76;30.29
70127;BME280;57491;42.694;23.314;2023-09-18T10:05:31;95561.16;;;33.29;28.80
70127;BME280;57491;42.694;23.314;2023-09-18T10:08:02;95552.47;;;33.32;28.05
70127;BME280;57491;42.694;23.314;2023-09-18T10:10:33;95559.50;;;33.19;28.31
70127;BME280;57491;42.694;23.314;2023-09-18T10:13:04;95552.97;;;33.51;27.58
70127;BME280;57491;42.694;23.314;2023-09-18T10:15:37;95546.69;;;34.29;27.09
70127;BME280;57491;42.694;23.314;2023-09-18T10:18:14;95549.69;;;34.88;26.30
70127;BME280;57491;42.694;23.314;2023-09-18T10:20:44;95548.03;;;35.04;25.73
70127;BME280;57491;42.694;23.314;2023-09-18T10:23:27;95544.75;;;34.81;25.36
70127;BME280;57491;42.694;23.314;2023-09-18T10:26:01;95547.09;;;33.88;27.11
70127;BME280;57491;42.694;23.314;2023-09-18T10:28:31;95539.69;;;33.15;28.38
70127;BME280;57491;42.694;23.314;2023-09-18T10:31:00;95533.56;;;33.23;28.08
70127;BME280;57491;42.694;23.314;2023-09-18T10:33:31;95520.41;;;33.30;27.78
70127;BME280;57491;42.694;23.314;2023-09-18T10:35:59;95519.31;;;33.88;26.79
70127;BME280;57491;42.694;23.314;2023-09-18T10:38:27;95518.06;;;34.54;26.38
70127;BME280;57491;42.694;23.314;2023-09-18T10:40:57;95514.25;;;34.64;25.85
70127;BME280;57491;42.694;23.314;2023-09-18T10:43:25;95511.44;;;35.15;25.20
70127;BME280;57491;42.694;23.314;2023-09-18T10:45:53;95514.38;;;34.93;25.92
70127;BME280;57491;42.694;23.314;2023-09-18T10:48:21;95499.84;;;34.08;25.76
70127;BME280;57491;42.694;23.314;2023-09-18T10:50:51;95507.03;;;33.16;27.63
70127;BME280;57491;42.694;23.314;2023-09-18T10:53:18;95503.31;;;34.09;26.06
70127;BME280;57491;42.694;23.314;2023-09-18T10:55:48;95503.47;;;34.03;26.17
70127;BME280;57491;42.694;23.314;2023-09-18T10:58:23;95486.38;;;33.51;26.65
70127;BME280;57491;42.694;23.314;2023-09-18T11:00:51;95503.13;;;33.79;26.77
70127;BME280;57491;42.694;23.314;2023-09-18T11:03:43;95498.84;;;34.81;25.53
70127;BME280;57491;42.694;23.314;2023-09-18T11:06:12;95485.16;;;35.62;24.72
70127;BME280;57491;42.694;23.314;2023-09-18T11:08:45;95498.00;;;36.24;23.63
70127;BME280;57491;42.694;23.314;2023-09-18T11:11:13;95484.34;;;35.70;24.29
70127;BME280;57491;42.694;23.314;2023-09-18T11:13:43;95487.69;;;36.17;23.42
70127;BME280;57491;42.694;23.314;2023-09-18T11:16:32;95482.38;;;36.21;23.50
70127;BME280;57491;42.694;23.314;2023-09-18T11:19:15;95481.91;;;36.40;22.97
70127;BME280;57491;42.694;23.314;2023-09-18T11:21:45;95473.69;;;36.15;23.25
70127;BME280;57491;42.694;23.314;2023-09-18T11:24:17;95475.41;;;36.74;22.26
70127;BME280;57491;42.694;23.314;2023-09-18T11:26:46;95467.84;;;36.46;22.96
70127;BME280;57491;42.694;23.314;2023-09-18T11:29:15;95463.78;;;36.19;23.94
70127;BME280;57491;42.694;23.314;2023-09-18T11:31:46;95477.25;;;36.28;22.70
70127;BME280;57491;42.694;23.314;2023-09-18T11:34:16;95465.22;;;35.75;23.15
70127;BME280;57491;42.694;23.314;2023-09-18T11:36:48;95457.47;;;36.15;23.10
70127;BME280;57491;42.694;23.314;2023-09-18T11:39:33;95455.75;;;36.89;22.17
70127;BME280;57491;42.694;23.314;2023-09-18T11:42:07;95458.53;;;35.73;23.55
70127;BME280;57491;42.694;23.314;2023-09-18T11:44:36;95450.75;;;35.71;23.52
70127;BME280;57491;42.694;23.314;2023-09-18T11:47:08;95437.41;;;37.06;22.15
70127;BME280;57491;42.694;23.314;2023-09-18T11:49:39;95450.13;;;38.03;20.78
70127;BME280;57491;42.694;23.314;2023-09-18T11:52:10;95433.84;;;38.19;20.85
70127;BME280;57491;42.694;23.314;2023-09-18T11:54:39;95442.19;;;36.64;22.40
70127;BME280;57491;42.694;23.314;2023-09-18T11:57:07;95435.03;;;37.05;22.17
70127;BME280;57491;42.694;23.314;2023-09-18T11:59:39;95440.41;;;37.90;21.01
70127;BME280;57491;42.694;23.314;2023-09-18T12:02:07;95431.66;;;38.36;20.12
70127;BME280;57491;42.694;23.314;2023-09-18T12:04:34;95428.84;;;39.23;20.01
70127;BME280;57491;42.694;23.314;2023-09-18T12:07:03;95426.09;;;40.25;18.97
70127;BME280;57491;42.694;23.314;2023-09-18T12:09:33;95433.66;;;40.16;18.51
70127;BME280;57491;42.694;23.314;2023-09-18T12:12:00;95441.44;;;39.63;19.22
70127;BME280;57491;42.694;23.314;2023-09-18T12:14:31;95437.34;;;38.75;20.01
70127;BME280;57491;42.694;23.314;2023-09-18T12:16:59;95433.19;;;37.82;21.14
70127;BME280;57491;42.694;23.314;2023-09-18T12:19:28;95439.56;;;36.02;22.91
70127;BME280;57491;42.694;23.314;2023-09-18T12:21:55;95436.13;;;35.93;23.69
70127;BME280;57491;42.694;23.314;2023-09-18T12:24:24;95425.44;;;36.30;23.58
70127;BME280;57491;42.694;23.314;2023-09-18T12:26:53;95423.63;;;36.01;23.99
70127;BME280;57491;42.694;23.314;2023-09-18T12:29:21;95425.03;;;34.98;25.54
70127;BME280;57491;42.694;23.314;2023-09-18T12:31:48;95408.03;;;34.42;25.87
70127;BME280;57491;42.694;23.314;2023-09-18T12:34:18;95419.72;;;34.81;25.81
70127;BME280;57491;42.694;23.314;2023-09-18T12:36:47;95425.41;;;35.26;24.95
70127;BME280;57491;42.694;23.314;2023-09-18T12:39:15;95426.88;;;36.15;23.76
70127;BME280;57491;42.694;23.314;2023-09-18T12:41:44;95418.53;;;36.53;23.12
70127;BME280;57491;42.694;23.314;2023-09-18T12:44:13;95412.34;;;37.22;22.07
70127;BME280;57491;42.694;23.314;2023-09-18T12:46:42;95419.63;;;36.85;22.41
70127;BME280;57491;42.694;23.314;2023-09-18T12:49:20;95421.75;;;35.30;23.75
70127;BME280;57491;42.694;23.314;2023-09-18T12:51:57;95406.78;;;34.14;25.83
70127;BME280;57491;42.694;23.314;2023-09-18T12:54:41;95404.03;;;33.19;26.34
70127;BME280;57491;42.694;23.314;2023-09-18T12:57:10;95413.84;;;33.15;26.46
70127;BME280;57491;42.694;23.314;2023-09-18T12:59:38;95408.13;;;32.69;27.21